Little Rock Air Force Base
KLRF : now visible

Airfield :











YOU CAN JOIN US ON...

 
LOGIN :

Register | Disclaimer

   EN    FR    IT 

 









Legend :    VFR   Marginal VFR   IFR   Intensive IFR   Very Intensive IFR
Visi :
Ceiling :
>= 8 km
>= 3000ft
5 to 8 km
1000 to 3000 ft
1500m to 5 km
500 to 1000 ft
800 to 1500m
200 to 500 ft
< 800m
< 200 ft
Symbols :   Thunderstorms  Fog  Heavy snow  Heavy precipitations  Wind > 20 kt






- Airport Elevation : 311 ft


KLRF - Little Rock Air Force Base

CURRENT METAR :
  • 210056Z 12005KT 10SM OVC150 18/04 A3007 RMK AO2A SLP186 T01780037 $

EXPIRED METARs :
  • 202356Z 12008KT 10SM OVC150 18/04 A3006 RMK AO2A SLP183 T01810036 10206 20180 53001 $
  • 202256Z 11005KT 10SM FEW150 SCT170 18/04 A3004 RMK AO2A SLP176 T01840038

TAF TAF KLRF
Valid from the 20 at 23:00 until the 22 at 05:00 UTC


202300Z 2023/2205 13006KT 9999 BKN120 OVC180 WS020/18040KT QNH3003INS
BECMG 2105/2106 VRB03KT 9999 OVC030 WS020/19040KT 550204 540609 QNH3005INS
BECMG 2110/2111 18006KT 9999 VCSH BKN011 OVC030 WS020/20040KT 550204 540609 QNH3005INS
BECMG 2114/2115 19009KT 9000 -SHRA OVC008 540209 QNH3002INS
BECMG 2116/2117 19009KT 9999 NSW OVC006 540209 QNH2998INS
BECMG 2202/2203 18009KT 9000 -SHRA OVC004 540029 540929 QNH2995INS TX19/2023Z TN11/2111Z



MET'MAP, your aeronautical weather chart ! - Copyright ORBIFLY December 2007 - Disclaimer

ORBIFLY MET'MAP TEAM :

Programming & Development : Alexandra Zaïnal
Concept & Development : Baudouin d'Aumeries
Co-Development & Prog : Marc-Olivier Méhu
Technical & hardware support : Manuel Goepfert

Contact : metmap@orbifly.com




SOURCES & CREDITS :

   NOAA       Earth
Advisory